Time;durP1;ratioP1;P1;durP2;ratioP2;P2;SDS_P1;SDS_P2;PMS_P1;PMS_P2;Temp;Humidity;BMP_temperature;BMP_pressure;BME280_temperature;BME280_humidity;BME280_pressure;Samples;Min_cycle;Max_cycle;Signal;HPM_P1;HPM_P2
2021/05/06 00:33:46;;;;;;;5.88;3.97;;;4.90;99.90;;;;;;5010976;28;20044;-71
2021/05/06 00:36:12;;;;;;;4.65;4.00;;;5.00;99.90;;;;;;5010817;28;20026;-73
2021/05/06 00:38:47;;;;;;;7.10;4.13;;;5.10;99.90;;;;;;4993536;28;20496;-73
2021/05/06 01:03:08;;;;;;;6.40;3.63;;;5.50;99.90;;;;;;4968430;28;20414;-73
2021/05/06 01:05:38;;;;;;;8.02;3.97;;;5.40;99.90;;;;;;5028273;28;20037;-73
2021/05/06 01:12:56;;;;;;;5.95;4.32;;;5.50;99.90;;;;;;5029923;28;20041;-72
2021/05/06 01:15:22;;;;;;;6.25;4.53;;;5.70;99.90;;;;;;5030247;28;20105;-71
2021/05/06 01:17:48;;;;;;;6.32;4.53;;;5.70;99.90;;;;;;5030677;28;20141;-72
2021/05/06 01:20:14;;;;;;;8.05;4.68;;;5.70;99.90;;;;;;5033953;28;20026;-71
2021/05/06 01:22:40;;;;;;;5.43;4.47;;;5.80;99.90;;;;;;5034545;28;20018;-71
2021/05/06 01:25:07;;;;;;;6.78;5.20;;;5.80;99.90;;;;;;5033962;28;20030;-72
2021/05/06 01:27:44;;;;;;;6.82;4.88;;;5.90;99.90;;;;;;5032321;28;20021;-72
2021/05/06 01:32:45;;;;;;;4.57;4.03;;;5.70;99.90;;;;;;5032304;28;20079;-73
2021/05/06 01:35:18;;;;;;;5.18;4.47;;;5.90;99.90;;;;;;5015012;28;20030;-73
2021/05/06 01:38:17;;;;;;;8.40;4.50;;;5.80;99.90;;;;;;5015187;28;20079;-72
2021/05/06 01:41:04;;;;;;;5.80;3.80;;;5.90;99.90;;;;;;5028618;28;20144;-73
2021/05/06 01:59:47;;;;;;;5.25;3.70;;;5.80;99.90;;;;;;5014536;28;20140;-73
2021/05/06 02:02:13;;;;;;;7.75;3.40;;;5.70;99.90;;;;;;5014167;28;20388;-72
2021/05/06 02:04:38;;;;;;;9.68;3.70;;;5.60;99.90;;;;;;5013164;28;20022;-73
2021/05/06 02:07:04;;;;;;;6.00;3.65;;;5.60;99.90;;;;;;5014033;28;20026;-73
2021/05/06 02:09:30;;;;;;;6.32;3.42;;;5.60;99.90;;;;;;5014176;28;20153;-73
2021/05/06 02:11:55;;;;;;;6.13;3.10;;;5.60;99.90;;;;;;5013931;28;20044;-73
2021/05/06 02:14:21;;;;;;;6.80;3.20;;;5.70;99.90;;;;;;5012885;28;20026;-73
2021/05/06 02:16:47;;;;;;;5.65;3.13;;;5.70;99.90;;;;;;5013878;28;20113;-73
2021/05/06 02:19:18;;;;;;;3.50;3.10;;;5.70;99.90;;;;;;5013601;28;20018;-72
2021/05/06 02:21:44;;;;;;;4.70;3.35;;;5.70;99.90;;;;;;4996188;28;20030;-73
2021/05/06 02:24:09;;;;;;;8.77;4.10;;;5.70;99.90;;;;;;5013134;28;20101;-72
2021/05/06 02:26:35;;;;;;;7.05;4.50;;;5.80;99.90;;;;;;5013565;28;20395;-73
2021/05/06 02:29:01;;;;;;;8.60;4.88;;;5.90;99.90;;;;;;5013667;28;20030;-74
2021/05/06 02:31:27;;;;;;;7.57;4.43;;;5.80;99.90;;;;;;4995885;28;20033;-73
2021/05/06 02:33:53;;;;;;;10.13;4.40;;;5.80;99.90;;;;;;5012710;28;20108;-72
2021/05/06 02:36:19;;;;;;;9.25;4.95;;;5.80;99.90;;;;;;5013661;28;20105;-73
2021/05/06 02:38:44;;;;;;;14.05;5.47;;;5.80;99.90;;;;;;5013427;28;20022;-73
2021/05/06 02:41:10;;;;;;;5.63;3.90;;;5.70;99.90;;;;;;4996584;28;20030;-73
2021/05/06 02:43:36;;;;;;;7.38;4.20;;;5.60;99.90;;;;;;5013976;28;20105;-73
2021/05/06 02:46:01;;;;;;;9.50;5.43;;;5.50;99.90;;;;;;5013394;28;20080;-73
2021/05/06 02:48:27;;;;;;;18.40;5.85;;;5.50;99.90;;;;;;5013146;28;20034;-73
2021/05/06 02:50:57;;;;;;;8.90;5.95;;;5.50;99.90;;;;;;5013032;28;20077;-73
2021/05/06 02:53:26;;;;;;;10.80;6.10;;;5.40;99.90;;;;;;5020457;28;20030;-71
2021/05/06 03:03:49;;;;;;;8.88;5.03;;;5.10;99.90;;;;;;5012454;28;20076;-72
2021/05/06 03:06:22;;;;;;;8.98;4.95;;;5.10;99.90;;;;;;5012971;28;20018;-73
2021/05/06 03:08:53;;;;;;;9.60;5.20;;;5.10;99.90;;;;;;4995420;28;20739;-72
2021/05/06 03:11:40;;;;;;;8.60;4.93;;;5.10;99.90;;;;;;4995395;28;20038;-73
2021/05/06 03:22:50;;;;;;;15.05;5.03;;;5.10;99.90;;;;;;4998547;28;20128;-71
2021/05/06 03:25:19;;;;;;;14.73;5.30;;;5.00;99.90;;;;;;5012507;28;20026;-73
2021/05/06 03:27:59;;;;;;;8.43;5.82;;;5.10;99.90;;;;;;5012661;28;20030;-72
2021/05/06 04:18:28;;;;;;;9.23;5.20;;;5.40;99.90;;;;;;5014156;28;20501;-74
2021/05/06 04:26:33;;;;;;;8.23;5.20;;;5.40;99.90;;;;;;5031450;28;20139;-73
2021/05/06 04:37:09;;;;;;;12.05;6.35;;;5.40;99.90;;;;;;5031443;28;20036;-73
2021/05/06 04:55:33;;;;;;;8.80;5.88;;;5.40;99.90;;;;;;5030505;28;20087;-74
2021/05/06 05:05:58;;;;;;;10.10;5.68;;;5.30;99.90;;;;;;5011434;28;20206;-74
2021/05/06 05:08:25;;;;;;;9.07;5.28;;;5.30;99.90;;;;;;5010400;28;20079;-73
2021/05/06 05:24:11;;;;;;;7.23;4.27;;;6.00;99.90;;;;;;5032360;28;20028;-73
2021/05/06 05:26:36;;;;;;;8.43;4.35;;;5.90;99.90;;;;;;5032388;28;20256;-72
2021/05/06 05:29:02;;;;;;;7.05;4.25;;;5.70;99.90;;;;;;5012692;28;20036;-73
2021/05/06 05:31:28;;;;;;;4.07;3.65;;;5.70;99.90;;;;;;5010431;28;20033;-72
2021/05/06 05:34:02;;;;;;;12.88;4.43;;;5.60;99.90;;;;;;5009543;28;20056;-70
2021/05/06 05:36:28;;;;;;;12.52;4.20;;;5.80;99.90;;;;;;4991902;28;20026;-72
2021/05/06 05:39:20;;;;;;;7.25;4.13;;;5.80;99.90;;;;;;5009223;28;20030;-73
2021/05/06 05:47:31;;;;;;;5.38;3.55;;;5.60;99.90;;;;;;5009573;28;20099;-73
2021/05/06 05:55:19;;;;;;;6.00;4.50;;;5.70;99.90;;;;;;5008908;28;20041;-74
2021/05/06 05:57:48;;;;;;;7.25;4.85;;;6.10;99.90;;;;;;5009128;28;20034;-74
2021/05/06 06:00:14;;;;;;;5.57;4.28;;;6.50;99.90;;;;;;5007063;28;20034;-73
2021/05/06 06:02:40;;;;;;;6.32;4.45;;;6.70;99.90;;;;;;5012378;28;20488;-73
2021/05/06 06:05:06;;;;;;;7.55;4.28;;;6.70;99.90;;;;;;5031908;28;20100;-73
2021/05/06 06:07:32;;;;;;;5.00;3.40;;;6.80;99.90;;;;;;5033898;28;20071;-74
2021/05/06 06:09:58;;;;;;;8.73;3.55;;;6.80;99.90;;;;;;5032291;28;20029;-74
2021/05/06 06:12:23;;;;;;;5.20;3.13;;;7.00;99.90;;;;;;5014210;28;20121;-74
2021/05/06 06:17:17;;;;;;;4.80;3.00;;;6.90;99.90;;;;;;5024116;28;20026;-73
2021/05/06 06:19:49;;;;;;;3.85;2.42;;;7.00;99.90;;;;;;5031371;28;20030;-73
2021/05/06 06:22:17;;;;;;;4.00;3.05;;;7.10;99.90;;;;;;5034336;28;20101;-72
2021/05/06 06:24:43;;;;;;;6.18;2.88;;;7.10;99.90;;;;;;5031551;28;20033;-73
2021/05/06 06:27:09;;;;;;;8.43;3.90;;;7.50;99.90;;;;;;5033283;28;20029;-73
2021/05/06 06:29:35;;;;;;;7.50;3.67;;;7.60;99.90;;;;;;5032893;28;20080;-73
2021/05/06 06:32:03;;;;;;;7.25;2.85;;;7.70;99.90;;;;;;5031990;28;20506;-72
2021/05/06 06:34:29;;;;;;;5.20;2.65;;;7.70;99.90;;;;;;5034854;28;20029;-74
2021/05/06 06:36:54;;;;;;;3.10;2.55;;;7.80;99.90;;;;;;5035952;28;20033;-73
2021/05/06 06:39:23;;;;;;;4.55;2.55;;;7.90;99.90;;;;;;5038205;28;20022;-73
2021/05/06 06:41:49;;;;;;;6.65;2.95;;;8.10;99.90;;;;;;5065945;22;20103;-71
2021/05/06 06:44:17;;;;;;;6.32;2.60;;;8.50;99.90;;;;;;5009121;28;20034;-71
2021/05/06 06:46:43;;;;;;;5.82;2.58;;;8.70;99.90;;;;;;5014353;28;20026;-71
2021/05/06 06:49:12;;;;;;;3.97;2.45;;;8.60;99.90;;;;;;5013853;28;20526;-71
2021/05/06 06:51:38;;;;;;;9.27;3.10;;;8.70;99.90;;;;;;5013709;28;20110;-71
2021/05/06 06:54:04;;;;;;;6.15;3.00;;;8.80;99.90;;;;;;5013385;28;20113;-70
2021/05/06 06:56:29;;;;;;;4.85;3.08;;;8.80;99.90;;;;;;5013500;28;20117;-71
2021/05/06 06:58:56;;;;;;;7.00;3.47;;;9.00;99.90;;;;;;5013206;28;20077;-71
2021/05/06 07:01:21;;;;;;;4.00;2.60;;;9.40;99.90;;;;;;5013569;28;20652;-70
2021/05/06 07:03:47;;;;;;;8.05;3.05;;;9.70;99.90;;;;;;5013184;28;20022;-70
2021/05/06 07:06:13;;;;;;;7.15;2.90;;;9.70;99.90;;;;;;5014043;28;20136;-70
2021/05/06 07:08:41;;;;;;;5.20;2.63;;;9.40;99.90;;;;;;5013776;28;20108;-70
2021/05/06 07:11:08;;;;;;;4.88;2.45;;;9.50;99.90;;;;;;5013626;28;20449;-71
2021/05/06 07:13:34;;;;;;;6.80;2.88;;;9.70;99.90;;;;;;5013237;28;20112;-71
2021/05/06 07:16:03;;;;;;;9.63;3.65;;;9.80;99.90;;;;;;5013028;28;20106;-70
2021/05/06 07:18:30;;;;;;;7.07;2.88;;;9.80;99.90;;;;;;5012965;28;20025;-71
2021/05/06 07:20:56;;;;;;;4.22;2.97;;;10.00;99.90;;;;;;4996077;28;20076;-72
2021/05/06 07:23:23;;;;;;;6.72;3.22;;;10.40;99.90;;;;;;5013032;28;20025;-70
2021/05/06 07:25:52;;;;;;;6.05;2.60;;;10.50;99.90;;;;;;4995020;28;20472;-71
2021/05/06 07:28:20;;;;;;;10.88;3.33;;;10.60;99.90;;;;;;5013542;28;20030;-70
2021/05/06 07:30:48;;;;;;;4.60;2.55;;;10.80;99.90;;;;;;5013085;28;20438;-70
2021/05/06 07:33:14;;;;;;;5.63;2.67;;;11.00;99.90;;;;;;5012593;28;20088;-71
2021/05/06 07:35:41;;;;;;;8.25;2.38;;;11.20;99.90;;;;;;5013157;28;20030;-70
2021/05/06 07:38:07;;;;;;;6.03;2.60;;;11.50;99.90;;;;;;5012941;28;20037;-69
2021/05/06 07:40:34;;;;;;;9.02;2.65;;;11.10;99.90;;;;;;5012964;28;20041;-70
2021/05/06 07:43:00;;;;;;;7.55;2.70;;;11.40;99.90;;;;;;5012285;28;20049;-69
2021/05/06 07:45:26;;;;;;;4.05;2.40;;;11.60;99.90;;;;;;5012110;28;20076;-69
2021/05/06 07:47:52;;;;;;;6.00;1.95;;;12.00;99.90;;;;;;5013113;28;20105;-71
2021/05/06 07:50:19;;;;;;;9.07;2.53;;;11.60;99.90;;;;;;5013052;28;20025;-71
2021/05/06 07:52:48;;;;;;;8.95;2.47;;;11.50;99.90;;;;;;5012637;28;20022;-70
2021/05/06 07:55:13;;;;;;;8.43;2.50;;;11.50;99.90;;;;;;5012658;28;20558;-70
2021/05/06 07:57:40;;;;;;;6.97;2.45;;;11.80;99.90;;;;;;5016583;28;20033;-70
2021/05/06 08:00:08;;;;;;;7.50;2.35;;;11.80;99.90;;;;;;5017867;28;20637;-71
2021/05/06 08:02:34;;;;;;;6.05;2.22;;;11.60;99.90;;;;;;5012001;28;20136;-70
2021/05/06 08:04:59;;;;;;;7.00;2.20;;;11.00;99.90;;;;;;4993780;28;20057;-69
2021/05/06 08:07:25;;;;;;;6.32;2.40;;;10.70;99.90;;;;;;5012737;28;20076;-70
2021/05/06 08:09:51;;;;;;;5.50;2.53;;;10.90;99.90;;;;;;5012793;28;20022;-69
2021/05/06 08:12:19;;;;;;;4.20;2.45;;;10.90;99.90;;;;;;5012323;28;20113;-69
2021/05/06 08:14:45;;;;;;;9.70;3.60;;;10.70;99.90;;;;;;5010784;28;20555;-69
2021/05/06 08:17:11;;;;;;;6.78;2.33;;;10.70;99.90;;;;;;5011675;28;20113;-70
2021/05/06 08:19:37;;;;;;;8.30;2.95;;;10.70;99.90;;;;;;4993524;28;20097;-71
2021/05/06 08:22:02;;;;;;;8.40;2.67;;;10.60;99.90;;;;;;4993406;28;20026;-71
2021/05/06 08:24:28;;;;;;;6.60;2.30;;;10.50;99.90;;;;;;5010416;28;20044;-71
2021/05/06 08:26:54;;;;;;;15.00;3.08;;;10.40;99.90;;;;;;5010922;28;20030;-70
2021/05/06 08:29:20;;;;;;;9.18;2.80;;;10.40;99.90;;;;;;5009979;28;20033;-70
2021/05/06 08:31:46;;;;;;;9.13;3.53;;;10.30;99.90;;;;;;5010684;28;20025;-70
2021/05/06 08:34:11;;;;;;;9.05;3.15;;;9.80;99.90;;;;;;5010609;28;20046;-70
2021/05/06 08:36:37;;;;;;;8.52;3.08;;;9.80;99.90;;;;;;5010418;28;20060;-70
2021/05/06 08:39:04;;;;;;;14.02;2.45;;;9.90;99.90;;;;;;5010092;28;20084;-70
2021/05/06 08:41:30;;;;;;;7.57;2.22;;;10.10;99.90;;;;;;4992526;28;20100;-71
2021/05/06 08:43:59;;;;;;;3.85;1.75;;;10.10;99.90;;;;;;5009432;28;20527;-72
2021/05/06 08:46:33;;;;;;;8.07;1.80;;;10.10;99.90;;;;;;5010800;28;20820;-70
2021/05/06 08:49:01;;;;;;;4.43;1.80;;;10.00;99.90;;;;;;5010312;28;20033;-70
2021/05/06 08:51:28;;;;;;;6.40;1.70;;;9.80;99.90;;;;;;5010303;28;20051;-70
2021/05/06 08:53:54;;;;;;;6.95;1.85;;;9.80;99.90;;;;;;5009924;28;20026;-69
2021/05/06 08:56:19;;;;;;;4.55;1.45;;;9.70;99.90;;;;;;5009561;28;20033;-71
2021/05/06 08:58:46;;;;;;;12.23;4.80;;;9.60;99.90;;;;;;5010450;28;20029;-69
2021/05/06 09:01:12;;;;;;;7.72;1.75;;;9.60;99.90;;;;;;5010029;28;20026;-71
2021/05/06 09:03:38;;;;;;;6.68;1.73;;;9.50;99.90;;;;;;5010139;28;20026;-69
2021/05/06 09:06:23;;;;;;;5.22;1.90;;;9.30;99.90;;;;;;5010154;28;20092;-71
2021/05/06 09:08:56;;;;;;;5.80;1.77;;;9.20;99.90;;;;;;5009807;28;20041;-70
2021/05/06 09:11:34;;;;;;;2.63;1.42;;;9.10;99.90;;;;;;5010317;28;20030;-71
2021/05/06 09:14:10;;;;;;;8.77;1.75;;;9.10;99.90;;;;;;5009155;28;20043;-70
2021/05/06 09:16:39;;;;;;;6.85;1.92;;;9.10;99.90;;;;;;5009673;28;20061;-71
2021/05/06 09:19:06;;;;;;;3.10;1.65;;;9.10;99.90;;;;;;5008266;28;20021;-70
2021/05/06 09:21:34;;;;;;;5.30;1.95;;;9.00;99.90;;;;;;4992260;28;20500;-69
2021/05/06 09:24:12;;;;;;;6.20;4.68;;;9.10;99.90;;;;;;5009339;28;20711;-71
2021/05/06 09:26:40;;;;;;;3.03;1.70;;;9.20;99.90;;;;;;5009651;28;20104;-71
2021/05/06 09:29:09;;;;;;;5.00;1.73;;;9.20;99.90;;;;;;5009764;28;20060;-70
2021/05/06 09:31:36;;;;;;;3.78;1.60;;;9.30;99.90;;;;;;5008718;28;21318;-72
2021/05/06 09:34:04;;;;;;;4.35;2.22;;;9.10;99.90;;;;;;5008795;28;20018;-72
2021/05/06 09:36:31;;;;;;;6.25;2.40;;;9.30;99.90;;;;;;5009724;28;20030;-71
2021/05/06 09:38:58;;;;;;;6.22;2.00;;;9.40;99.90;;;;;;5009163;28;20022;-71
2021/05/06 09:41:34;;;;;;;2.30;1.67;;;9.50;99.90;;;;;;5009357;28;20034;-71
2021/05/06 09:44:11;;;;;;;2.95;1.60;;;9.40;99.90;;;;;;5008605;28;20369;-71
2021/05/06 09:46:43;;;;;;;4.30;1.38;;;9.50;99.90;;;;;;5009504;28;20137;-73
2021/05/06 09:49:18;;;;;;;2.60;1.85;;;9.60;99.90;;;;;;5009381;28;20036;-71
2021/05/06 09:51:48;;;;;;;2.83;1.55;;;9.50;99.90;;;;;;5008785;28;20116;-71
2021/05/06 09:54:21;;;;;;;4.82;2.10;;;9.40;99.90;;;;;;5009263;28;20022;-71
2021/05/06 09:57:05;;;;;;;6.95;1.92;;;9.70;99.90;;;;;;5010083;28;20503;-71
2021/05/06 09:59:38;;;;;;;17.77;13.23;;;10.50;99.90;;;;;;4991882;28;20037;-71
2021/05/06 10:02:13;;;;;;;12.32;8.50;;;10.60;99.90;;;;;;5009420;28;20022;-72
2021/05/06 10:04:41;;;;;;;5.93;4.30;;;10.00;99.90;;;;;;5015874;28;20025;-72
2021/05/06 10:07:23;;;;;;;4.90;2.50;;;9.90;99.90;;;;;;5029183;28;20025;-70
2021/05/06 10:10:02;;;;;;;3.17;1.90;;;10.00;99.90;;;;;;5032081;28;20026;-71
2021/05/06 10:12:36;;;;;;;10.77;6.13;;;9.80;99.90;;;;;;5028000;28;20068;-71
2021/05/06 10:15:08;;;;;;;15.75;9.70;;;9.90;99.90;;;;;;5012373;28;20026;-71
2021/05/06 10:17:36;;;;;;;36.45;23.83;;;10.00;99.90;;;;;;4993916;28;20780;-71
2021/05/06 10:20:02;;;;;;;24.40;15.50;;;10.20;99.90;;;;;;5006971;28;20030;-72
2021/05/06 10:22:29;;;;;;;6.72;3.33;;;10.40;99.90;;;;;;5013046;28;20073;-72
2021/05/06 10:24:56;;;;;;;11.68;7.80;;;10.60;99.90;;;;;;5020782;28;20029;-72
2021/05/06 10:27:23;;;;;;;5.82;2.60;;;10.90;99.90;;;;;;5015373;28;20099;-70
2021/05/06 10:29:57;;;;;;;7.30;6.47;;;11.10;99.90;;;;;;5032315;28;20037;-71
2021/05/06 10:32:28;;;;;;;3.08;1.80;;;11.20;99.90;;;;;;5032464;28;20025;-70
2021/05/06 10:34:55;;;;;;;3.20;2.00;;;11.20;99.90;;;;;;5031326;28;20037;-70
2021/05/06 10:37:30;;;;;;;1.85;1.30;;;11.30;99.90;;;;;;5032390;28;20064;-69
2021/05/06 10:39:57;;;;;;;1.98;1.15;;;10.80;99.90;;;;;;5032359;28;20025;-70
2021/05/06 10:42:28;;;;;;;5.85;1.80;;;10.50;99.90;;;;;;5032344;28;20029;-70
2021/05/06 10:44:58;;;;;;;3.73;2.47;;;10.30;99.90;;;;;;5031333;28;20059;-70
2021/05/06 10:47:50;;;;;;;3.38;2.00;;;10.40;99.90;;;;;;5012949;28;20627;-71
2021/05/06 10:50:32;;;;;;;4.05;2.30;;;10.40;99.90;;;;;;5012479;28;20097;-70
2021/05/06 10:52:57;;;;;;;3.25;1.42;;;10.40;99.90;;;;;;5011756;28;20468;-71
2021/05/06 10:55:49;;;;;;;1.75;1.65;;;10.60;99.90;;;;;;5012819;28;20092;-72
2021/05/06 10:58:27;;;;;;;1.80;1.58;;;10.80;99.90;;;;;;5012620;28;20105;-71
2021/05/06 11:01:01;;;;;;;3.65;1.65;;;10.80;99.90;;;;;;5012895;28;20088;-71
2021/05/06 11:03:28;;;;;;;3.17;1.50;;;10.90;99.90;;;;;;5012277;28;20030;-70
2021/05/06 11:05:54;;;;;;;2.58;0.93;;;11.10;99.90;;;;;;5012085;28;20032;-70
2021/05/06 11:08:22;;;;;;;1.48;1.10;;;10.90;99.90;;;;;;5012397;28;20107;-70
2021/05/06 11:10:49;;;;;;;2.20;1.33;;;11.30;99.90;;;;;;5011647;28;20033;-71
2021/05/06 11:13:16;;;;;;;2.10;1.40;;;11.50;99.90;;;;;;5011847;28;20018;-70
2021/05/06 11:15:42;;;;;;;1.75;1.15;;;11.60;99.90;;;;;;5011755;28;20076;-70
2021/05/06 11:18:10;;;;;;;1.67;0.90;;;11.50;99.90;;;;;;5011236;28;20022;-70
2021/05/06 11:20:36;;;;;;;1.10;0.88;;;11.40;99.90;;;;;;5011555;28;20026;-69
2021/05/06 11:23:02;;;;;;;2.25;1.20;;;11.20;99.90;;;;;;5011711;28;20040;-70
2021/05/06 11:25:31;;;;;;;2.45;1.38;;;11.00;99.90;;;;;;5011932;28;20025;-69
2021/05/06 11:27:57;;;;;;;1.58;1.08;;;11.10;99.90;;;;;;5012067;28;20025;-69
2021/05/06 11:30:36;;;;;;;2.05;1.15;;;11.20;99.90;;;;;;4994423;28;20033;-70
2021/05/06 11:33:25;;;;;;;2.38;1.30;;;11.20;99.90;;;;;;5009468;28;20029;-70
2021/05/06 11:36:11;;;;;;;1.90;1.08;;;11.40;99.90;;;;;;5008286;28;20056;-71
2021/05/06 11:38:39;;;;;;;3.50;1.08;;;11.10;99.90;;;;;;5011931;28;20022;-71
2021/05/06 11:41:06;;;;;;;3.40;1.30;;;11.00;99.90;;;;;;5011602;28;20026;-72
2021/05/06 11:43:40;;;;;;;3.72;1.70;;;11.00;99.90;;;;;;5011340;28;20022;-70
2021/05/06 11:46:17;;;;;;;7.35;5.30;;;11.50;99.90;;;;;;5011430;28;20025;-71
2021/05/06 11:48:46;;;;;;;1.33;1.13;;;11.70;99.90;;;;;;5011051;28;20690;-72
2021/05/06 11:51:24;;;;;;;111.63;65.03;;;11.60;99.90;;;;;;5011198;28;20061;-72
2021/05/06 11:54:06;;;;;;;9.25;4.70;;;11.50;99.90;;;;;;5010896;28;20025;-72
2021/05/06 11:56:33;;;;;;;2.58;1.90;;;11.30;99.90;;;;;;5011604;28;20045;-72
2021/05/06 11:58:59;;;;;;;2.65;1.70;;;11.10;99.90;;;;;;5011883;28;20396;-72
2021/05/06 12:01:28;;;;;;;1.45;1.23;;;11.00;99.90;;;;;;4994316;28;20131;-71
2021/05/06 12:03:55;;;;;;;1.33;1.10;;;10.80;99.90;;;;;;5011701;28;20022;-72
2021/05/06 12:06:36;;;;;;;2.00;1.27;;;10.80;99.90;;;;;;5013564;28;20364;-71
2021/05/06 12:09:05;;;;;;;4.22;1.45;;;10.40;99.90;;;;;;5013894;28;20463;-70
2021/05/06 12:11:39;;;;;;;2.97;1.70;;;10.40;99.90;;;;;;5013800;28;20037;-71
2021/05/06 12:14:06;;;;;;;3.20;1.50;;;10.10;99.90;;;;;;5013653;28;20026;-72
2021/05/06 12:16:34;;;;;;;1.17;1.10;;;10.00;99.90;;;;;;5001566;28;20022;-72
2021/05/06 12:19:18;;;;;;;2.70;1.67;;;10.10;99.90;;;;;;5013137;28;20065;-72
2021/05/06 12:21:48;;;;;;;1.10;1.00;;;10.40;99.90;;;;;;5019694;28;20030;-72
2021/05/06 12:24:25;;;;;;;2.50;1.50;;;10.60;99.90;;;;;;5012316;28;20080;-70
2021/05/06 12:26:51;;;;;;;2.83;1.25;;;10.70;99.90;;;;;;5013014;28;20512;-71
2021/05/06 12:29:24;;;;;;;3.65;2.25;;;10.80;99.90;;;;;;4995060;28;20052;-71
2021/05/06 12:31:52;;;;;;;3.33;1.80;;;11.10;99.90;;;;;;5011940;28;20451;-71
2021/05/06 12:34:23;;;;;;;7.05;3.75;;;11.20;99.90;;;;;;5011515;28;20117;-71
2021/05/06 12:36:49;;;;;;;18.77;5.32;;;11.10;99.90;;;;;;5012602;28;20114;-72
2021/05/06 12:39:16;;;;;;;48.70;12.25;;;11.00;99.90;;;;;;4994550;28;20126;-71
2021/05/06 12:42:08;;;;;;;32.38;9.52;;;11.10;99.90;;;;;;4994474;28;20030;-71
2021/05/06 12:44:46;;;;;;;6.40;4.28;;;11.20;99.90;;;;;;4998582;23;20425;-73
2021/05/06 12:47:27;;;;;;;13.57;3.70;;;11.10;99.90;;;;;;5007041;28;20022;-72
2021/05/06 12:50:20;;;;;;;7.65;2.42;;;10.40;99.90;;;;;;5000023;28;20030;-72
2021/05/06 12:52:47;;;;;;;;;;;10.30;99.90;;;;;;4993523;28;20109;-72
2021/05/06 12:55:18;;;;;;;3.40;1.85;;;10.30;99.90;;;;;;4993885;28;19905;-71
2021/05/06 12:57:46;;;;;;;2.63;1.42;;;10.30;99.90;;;;;;4995436;28;20022;-72
2021/05/06 13:00:19;;;;;;;3.83;1.30;;;10.10;99.90;;;;;;4995689;28;20488;-73
2021/05/06 13:02:45;;;;;;;2.33;1.73;;;9.90;99.90;;;;;;5000337;28;20077;-73
2021/05/06 13:05:13;;;;;;;1.90;1.65;;;9.80;99.90;;;;;;5002279;28;20030;-73
2021/05/06 13:07:51;;;;;;;7.60;2.30;;;9.80;99.90;;;;;;5002178;28;20025;-72
2021/05/06 13:10:47;;;;;;;7.78;2.25;;;9.70;99.90;;;;;;5002915;28;20048;-72
2021/05/06 13:13:45;;;;;;;3.13;1.73;;;9.70;99.90;;;;;;4994746;28;20090;-73
2021/05/06 13:16:13;;;;;;;2.35;1.90;;;9.80;99.90;;;;;;5003919;28;20557;-72
2021/05/06 13:18:39;;;;;;;2.47;2.17;;;9.70;99.90;;;;;;5001312;28;20033;-73
2021/05/06 13:21:23;;;;;;;6.32;2.00;;;9.50;99.90;;;;;;5003668;28;20093;-73
2021/05/06 13:23:53;;;;;;;14.57;2.55;;;9.50;99.90;;;;;;5000856;28;20030;-72
2021/05/06 13:26:33;;;;;;;7.13;3.50;;;9.50;99.90;;;;;;5011674;28;20546;-71
2021/05/06 13:29:01;;;;;;;1.98;1.50;;;9.60;99.90;;;;;;5013041;28;20034;-73
2021/05/06 13:31:33;;;;;;;2.42;1.00;;;9.50;99.90;;;;;;5008168;28;20026;-71
2021/05/06 13:34:08;;;;;;;;;;;9.30;99.90;;;;;;5013239;28;20155;-71
2021/05/06 13:36:33;;;;;;;1.13;1.00;;;9.30;99.90;;;;;;5012731;28;19906;-72
2021/05/06 13:39:00;;;;;;;3.45;1.30;;;9.00;99.90;;;;;;5012258;28;20018;-72
2021/05/06 13:41:30;;;;;;;3.75;2.38;;;9.10;99.90;;;;;;5012459;28;20496;-77
2021/05/06 13:43:58;;;;;;;2.80;1.30;;;9.00;99.90;;;;;;5014173;28;20102;-76
2021/05/06 13:46:25;;;;;;;2.72;1.27;;;9.00;99.90;;;;;;5009325;28;20025;-74
2021/05/06 13:48:51;;;;;;;3.47;1.10;;;9.00;99.90;;;;;;5024946;28;20024;-77
2021/05/06 13:51:18;;;;;;;4.60;0.93;;;8.90;99.90;;;;;;5021260;28;20049;-75
2021/05/06 13:53:46;;;;;;;0.95;0.77;;;9.10;99.90;;;;;;5026346;28;20046;-74
2021/05/06 13:56:12;;;;;;;4.53;1.67;;;9.10;99.90;;;;;;5008835;28;20021;-76
2021/05/06 13:58:39;;;;;;;3.22;1.30;;;9.00;99.90;;;;;;5025855;28;20446;-75
2021/05/06 14:01:07;;;;;;;1.58;1.20;;;9.00;99.90;;;;;;5007821;28;20041;-76
2021/05/06 14:03:33;;;;;;;0.95;0.85;;;8.70;99.90;;;;;;5023574;28;20430;-76
2021/05/06 14:06:02;;;;;;;1.77;1.10;;;8.70;99.90;;;;;;5026859;28;20024;-76
2021/05/06 14:08:28;;;;;;;1.08;0.85;;;8.90;99.90;;;;;;5013828;28;20986;-77
2021/05/06 14:10:55;;;;;;;2.35;1.45;;;8.70;99.90;;;;;;5012056;28;20030;-76
2021/05/06 14:13:21;;;;;;;1.52;0.98;;;8.50;99.90;;;;;;5029966;28;20022;-76
2021/05/06 14:15:47;;;;;;;2.63;1.15;;;8.70;99.90;;;;;;5009851;28;20399;-75
2021/05/06 14:18:13;;;;;;;1.85;1.00;;;8.80;99.90;;;;;;5027821;28;20054;-77
2021/05/06 14:20:40;;;;;;;1.92;1.38;;;8.90;99.90;;;;;;5009426;28;20033;-76
2021/05/06 14:23:07;;;;;;;2.60;1.40;;;9.00;99.90;;;;;;5003586;28;20045;-76
2021/05/06 14:25:33;;;;;;;2.65;1.40;;;9.10;99.90;;;;;;5030153;28;20025;-76
2021/05/06 14:27:59;;;;;;;1.70;1.17;;;8.90;99.90;;;;;;5025854;28;20072;-77
2021/05/06 14:30:25;;;;;;;2.50;1.10;;;8.60;99.90;;;;;;5011513;28;20025;-76
2021/05/06 14:32:51;;;;;;;5.88;2.88;;;8.70;99.90;;;;;;5025700;28;20032;-76
2021/05/06 14:35:17;;;;;;;1.67;1.20;;;8.90;99.90;;;;;;5003998;28;20278;-76
2021/05/06 14:37:43;;;;;;;1.88;1.20;;;8.70;99.90;;;;;;5023816;28;20048;-76
2021/05/06 14:40:09;;;;;;;1.70;1.00;;;8.70;99.90;;;;;;5019593;28;20483;-76
2021/05/06 14:42:35;;;;;;;1.98;1.05;;;8.90;99.90;;;;;;5023595;28;20017;-75
2021/05/06 14:45:01;;;;;;;0.88;0.88;;;8.90;99.90;;;;;;5032670;28;20118;-75
2021/05/06 14:47:27;;;;;;;2.60;1.30;;;8.80;99.90;;;;;;5024294;28;20033;-76
2021/05/06 14:49:53;;;;;;;2.17;0.90;;;9.00;99.90;;;;;;5005746;28;20032;-77
2021/05/06 14:52:19;;;;;;;1.42;1.33;;;9.00;99.90;;;;;;5003885;28;20104;-77
2021/05/06 14:54:46;;;;;;;2.20;1.23;;;9.20;99.90;;;;;;5021064;28;20097;-75
2021/05/06 14:57:12;;;;;;;1.52;1.40;;;9.20;99.90;;;;;;5002899;28;20109;-75
2021/05/06 14:59:38;;;;;;;1.83;1.25;;;9.40;99.90;;;;;;5022226;28;20109;-76
2021/05/06 15:02:03;;;;;;;2.83;1.23;;;9.50;99.90;;;;;;5022139;28;20029;-76
2021/05/06 15:04:30;;;;;;;1.80;1.50;;;9.30;99.90;;;;;;5020486;28;20040;-76
2021/05/06 15:06:56;;;;;;;4.97;1.45;;;9.40;99.90;;;;;;5003566;28;20495;-76
2021/05/06 15:09:24;;;;;;;3.25;1.35;;;9.40;99.90;;;;;;5021878;28;20036;-76
2021/05/06 15:11:50;;;;;;;3.17;1.52;;;9.40;99.90;;;;;;5023380;28;20541;-76
2021/05/06 15:14:15;;;;;;;2.08;1.33;;;9.40;99.90;;;;;;5022747;28;20018;-76
2021/05/06 15:16:41;;;;;;;2.13;1.80;;;9.50;99.90;;;;;;5023583;28;20071;-76
2021/05/06 15:19:07;;;;;;;2.65;1.90;;;9.60;99.90;;;;;;5027242;28;20057;-76
2021/05/06 15:21:32;;;;;;;1.90;1.60;;;9.70;99.90;;;;;;5024004;28;20021;-75
2021/05/06 15:23:58;;;;;;;1.88;1.50;;;9.90;99.90;;;;;;5024851;28;20021;-76
2021/05/06 15:26:24;;;;;;;3.90;2.10;;;9.80;99.90;;;;;;5004512;28;20021;-77
2021/05/06 15:28:51;;;;;;;2.17;1.42;;;9.70;99.90;;;;;;5004262;28;20079;-76
2021/05/06 15:31:18;;;;;;;2.05;1.20;;;9.60;99.90;;;;;;5004089;28;20022;-77
2021/05/06 15:33:44;;;;;;;1.52;1.17;;;9.80;99.90;;;;;;5021514;28;20029;-75
2021/05/06 15:36:11;;;;;;;2.38;1.10;;;9.80;99.90;;;;;;5027026;28;20037;-76
2021/05/06 15:38:38;;;;;;;3.33;1.33;;;9.60;99.90;;;;;;5027184;28;20085;-77
2021/05/06 15:41:03;;;;;;;2.88;2.10;;;9.80;99.90;;;;;;5025935;28;20018;-76
2021/05/06 15:43:29;;;;;;;13.90;8.38;;;9.80;99.90;;;;;;5026592;28;20034;-77
2021/05/06 15:45:58;;;;;;;6.10;1.60;;;9.80;99.90;;;;;;5005879;28;20077;-78
2021/05/06 15:48:24;;;;;;;2.30;1.33;;;10.10;99.90;;;;;;5027465;28;20484;-76
2021/05/06 15:50:50;;;;;;;2.15;1.77;;;10.30;99.90;;;;;;5004985;28;20029;-75
2021/05/06 15:53:15;;;;;;;1.85;1.70;;;10.30;99.90;;;;;;5024529;28;20029;-78
2021/05/06 15:55:41;;;;;;;1.60;1.50;;;10.30;99.90;;;;;;5022898;28;20104;-74
2021/05/06 15:58:08;;;;;;;2.22;1.35;;;10.20;99.90;;;;;;5006588;28;20088;-75
2021/05/06 16:00:35;;;;;;;2.90;1.85;;;10.00;99.90;;;;;;5028809;28;20040;-75
2021/05/06 16:03:04;;;;;;;2.40;1.20;;;9.90;99.90;;;;;;5003766;28;20022;-77
2021/05/06 16:05:30;;;;;;;2.95;1.55;;;9.80;99.90;;;;;;5018049;28;20022;-73
2021/05/06 16:07:57;;;;;;;2.90;2.00;;;9.80;99.90;;;;;;4993572;28;20030;-75
2021/05/06 16:10:24;;;;;;;6.63;1.88;;;9.90;99.90;;;;;;4994923;28;20045;-74
2021/05/06 16:12:50;;;;;;;3.38;2.20;;;10.10;99.90;;;;;;4993548;28;20030;-72
2021/05/06 16:15:17;;;;;;;15.77;6.70;;;10.10;99.90;;;;;;5023152;28;20045;-74
2021/05/06 16:17:43;;;;;;;4.05;2.63;;;9.90;99.90;;;;;;5031558;28;20483;-74
2021/05/06 16:20:18;;;;;;;2.88;2.45;;;9.80;99.90;;;;;;5013404;28;20025;-74
2021/05/06 16:22:45;;;;;;;2.45;2.25;;;9.60;99.90;;;;;;5031489;28;20045;-75
2021/05/06 16:25:12;;;;;;;2.75;2.00;;;9.80;99.90;;;;;;5013614;28;20577;-73
2021/05/06 16:27:39;;;;;;;1.25;1.13;;;9.70;99.90;;;;;;5013721;28;20514;-73
2021/05/06 16:30:07;;;;;;;8.75;7.70;;;9.70;99.90;;;;;;5031248;28;20081;-75